sensor_id;sensor_type;location;lat;lon;timestamp;pressure;altitude;pressure_sealevel;temperature;humidity
46111;BME280;31849;55.992;37.252;2023-01-15T00:04:43;99663.94;;;-1.04;63.93
46111;BME280;31849;55.992;37.252;2023-01-15T00:09:48;99660.59;;;-1.03;63.74
46111;BME280;31849;55.992;37.252;2023-01-15T00:14:52;99667.50;;;-1.01;63.49
46111;BME280;31849;55.992;37.252;2023-01-15T00:19:55;99657.44;;;-1.16;63.64
46111;BME280;31849;55.992;37.252;2023-01-15T00:25:00;99665.69;;;-1.03;63.65
46111;BME280;31849;55.992;37.252;2023-01-15T00:30:21;99665.91;;;-1.17;64.14
46111;BME280;31849;55.992;37.252;2023-01-15T00:35:26;99655.78;;;-1.15;63.89
46111;BME280;31849;55.992;37.252;2023-01-15T00:40:30;99658.47;;;-1.12;63.76
46111;BME280;31849;55.992;37.252;2023-01-15T00:45:34;99656.78;;;-1.30;63.84
46111;BME280;31849;55.992;37.252;2023-01-15T00:50:37;99649.25;;;-1.09;63.57
46111;BME280;31849;55.992;37.252;2023-01-15T00:55:42;99638.84;;;-1.13;63.87
46111;BME280;31849;55.992;37.252;2023-01-15T01:00:46;99644.47;;;-1.20;63.99
46111;BME280;31849;55.992;37.252;2023-01-15T01:05:49;99651.69;;;-1.12;63.60
46111;BME280;31849;55.992;37.252;2023-01-15T01:11:02;99640.88;;;-1.06;63.43
46111;BME280;31849;55.992;37.252;2023-01-15T01:16:20;99639.13;;;-1.07;63.67
46111;BME280;31849;55.992;37.252;2023-01-15T01:21:25;99653.44;;;-1.11;64.07
46111;BME280;31849;55.992;37.252;2023-01-15T01:26:30;99645.13;;;-1.07;63.30
46111;BME280;31849;55.992;37.252;2023-01-15T01:31:33;99633.31;;;-1.04;63.26
46111;BME280;31849;55.992;37.252;2023-01-15T01:36:39;99639.13;;;-1.25;63.86
46111;BME280;31849;55.992;37.252;2023-01-15T01:41:45;99642.88;;;-1.18;63.93
46111;BME280;31849;55.992;37.252;2023-01-15T01:46:48;99622.97;;;-1.26;64.04
46111;BME280;31849;55.992;37.252;2023-01-15T01:51:55;99627.91;;;-1.11;63.68
46111;BME280;31849;55.992;37.252;2023-01-15T01:57:03;99626.91;;;-1.14;63.88
46111;BME280;31849;55.992;37.252;2023-01-15T02:02:08;99626.00;;;-1.15;63.76
46111;BME280;31849;55.992;37.252;2023-01-15T02:07:12;99632.31;;;-1.26;64.08
46111;BME280;31849;55.992;37.252;2023-01-15T02:12:23;99627.91;;;-1.11;63.69
46111;BME280;31849;55.992;37.252;2023-01-15T02:17:32;99635.16;;;-1.20;63.81
46111;BME280;31849;55.992;37.252;2023-01-15T02:22:46;99629.69;;;-1.10;63.71
46111;BME280;31849;55.992;37.252;2023-01-15T02:28:01;99630.53;;;-1.09;63.57
46111;BME280;31849;55.992;37.252;2023-01-15T02:33:10;99625.81;;;-1.19;64.04
46111;BME280;31849;55.992;37.252;2023-01-15T02:38:17;99616.72;;;-1.14;63.68
46111;BME280;31849;55.992;37.252;2023-01-15T02:43:25;99623.59;;;-1.12;63.36
46111;BME280;31849;55.992;37.252;2023-01-15T02:48:31;99619.53;;;-1.08;63.58
46111;BME280;31849;55.992;37.252;2023-01-15T02:53:37;99634.72;;;-1.11;63.59
46111;BME280;31849;55.992;37.252;2023-01-15T02:58:44;99628.84;;;-1.09;63.79
46111;BME280;31849;55.992;37.252;2023-01-15T03:03:51;99629.38;;;-0.98;63.60
46111;BME280;31849;55.992;37.252;2023-01-15T03:08:57;99628.25;;;-1.03;63.41
46111;BME280;31849;55.992;37.252;2023-01-15T03:14:06;99634.78;;;-1.10;63.86
46111;BME280;31849;55.992;37.252;2023-01-15T03:19:21;99629.75;;;-1.26;64.06
46111;BME280;31849;55.992;37.252;2023-01-15T03:24:31;99638.06;;;-1.12;63.82
46111;BME280;31849;55.992;37.252;2023-01-15T03:29:39;99628.28;;;-1.21;64.71
46111;BME280;31849;55.992;37.252;2023-01-15T03:34:47;99625.94;;;-1.34;64.68
46111;BME280;31849;55.992;37.252;2023-01-15T03:39:52;99628.72;;;-1.30;64.70
46111;BME280;31849;55.992;37.252;2023-01-15T03:44:59;99635.28;;;-1.35;65.19
46111;BME280;31849;55.992;37.252;2023-01-15T03:50:11;99635.59;;;-1.29;64.82
46111;BME280;31849;55.992;37.252;2023-01-15T03:55:22;99620.56;;;-1.22;64.78
46111;BME280;31849;55.992;37.252;2023-01-15T04:00:33;99626.53;;;-1.40;65.19
46111;BME280;31849;55.992;37.252;2023-01-15T04:05:38;99634.03;;;-1.43;65.85
46111;BME280;31849;55.992;37.252;2023-01-15T04:10:50;99632.63;;;-1.54;66.33
46111;BME280;31849;55.992;37.252;2023-01-15T04:15:56;99638.69;;;-1.52;65.96
46111;BME280;31849;55.992;37.252;2023-01-15T04:21:00;99644.50;;;-1.55;66.04
46111;BME280;31849;55.992;37.252;2023-01-15T04:26:06;99648.03;;;-1.53;66.05
46111;BME280;31849;55.992;37.252;2023-01-15T04:31:11;99641.03;;;-1.39;65.80
46111;BME280;31849;55.992;37.252;2023-01-15T04:36:14;99645.50;;;-1.69;67.60
46111;BME280;31849;55.992;37.252;2023-01-15T04:41:17;99614.53;;;-1.77;66.78
46111;BME280;31849;55.992;37.252;2023-01-15T04:46:42;99620.41;;;-1.62;67.07
46111;BME280;31849;55.992;37.252;2023-01-15T04:51:46;99616.06;;;-1.81;67.61
46111;BME280;31849;55.992;37.252;2023-01-15T04:56:51;99621.69;;;-1.70;67.06
46111;BME280;31849;55.992;37.252;2023-01-15T05:01:56;99622.88;;;-1.63;67.24
46111;BME280;31849;55.992;37.252;2023-01-15T05:07:06;99613.75;;;-1.76;67.26
46111;BME280;31849;55.992;37.252;2023-01-15T05:12:10;99624.75;;;-1.77;67.75
46111;BME280;31849;55.992;37.252;2023-01-15T05:17:14;99614.31;;;-1.82;67.75
46111;BME280;31849;55.992;37.252;2023-01-15T05:22:18;99623.94;;;-1.76;67.52
46111;BME280;31849;55.992;37.252;2023-01-15T05:27:21;99613.91;;;-1.73;67.46
46111;BME280;31849;55.992;37.252;2023-01-15T05:32:26;99607.03;;;-1.74;67.72
46111;BME280;31849;55.992;37.252;2023-01-15T05:37:29;99592.38;;;-1.96;68.59
46111;BME280;31849;55.992;37.252;2023-01-15T05:42:33;99583.16;;;-1.76;67.98
46111;BME280;31849;55.992;37.252;2023-01-15T05:47:38;99586.22;;;-1.65;67.36
46111;BME280;31849;55.992;37.252;2023-01-15T05:52:41;99598.63;;;-1.55;67.52
46111;BME280;31849;55.992;37.252;2023-01-15T05:57:44;99605.97;;;-1.43;66.78
46111;BME280;31849;55.992;37.252;2023-01-15T06:02:49;99613.19;;;-1.52;67.38
46111;BME280;31849;55.992;37.252;2023-01-15T06:07:53;99628.00;;;-1.45;66.94
46111;BME280;31849;55.992;37.252;2023-01-15T06:12:56;99624.25;;;-1.52;66.71
46111;BME280;31849;55.992;37.252;2023-01-15T06:18:01;99612.97;;;-1.57;67.19
46111;BME280;31849;55.992;37.252;2023-01-15T06:23:05;99627.03;;;-1.47;67.31
46111;BME280;31849;55.992;37.252;2023-01-15T06:28:09;99605.91;;;-1.45;67.21
46111;BME280;31849;55.992;37.252;2023-01-15T06:33:14;99628.94;;;-1.43;67.23
46111;BME280;31849;55.992;37.252;2023-01-15T06:38:17;99621.00;;;-1.31;66.60
46111;BME280;31849;55.992;37.252;2023-01-15T06:43:21;99613.63;;;-1.43;66.77
46111;BME280;31849;55.992;37.252;2023-01-15T06:48:43;99618.94;;;-1.38;67.19
46111;BME280;31849;55.992;37.252;2023-01-15T06:53:48;99640.97;;;-1.22;66.54
46111;BME280;31849;55.992;37.252;2023-01-15T06:58:51;99639.44;;;-1.37;67.23
46111;BME280;31849;55.992;37.252;2023-01-15T07:03:58;99638.72;;;-1.34;66.74
46111;BME280;31849;55.992;37.252;2023-01-15T07:09:02;99629.38;;;-1.34;66.71
46111;BME280;31849;55.992;37.252;2023-01-15T07:14:05;99639.00;;;-1.28;66.67
46111;BME280;31849;55.992;37.252;2023-01-15T07:19:10;99628.94;;;-1.25;66.61
46111;BME280;31849;55.992;37.252;2023-01-15T07:24:14;99619.31;;;-1.31;66.91
46111;BME280;31849;55.992;37.252;2023-01-15T07:29:18;99637.34;;;-1.10;66.26
46111;BME280;31849;55.992;37.252;2023-01-15T07:34:23;99637.41;;;-1.08;66.30
46111;BME280;31849;55.992;37.252;2023-01-15T07:39:27;99625.53;;;-1.26;66.58
46111;BME280;31849;55.992;37.252;2023-01-15T07:44:32;99633.03;;;-1.11;66.15
46111;BME280;31849;55.992;37.252;2023-01-15T07:49:54;99622.75;;;-1.12;66.35
46111;BME280;31849;55.992;37.252;2023-01-15T07:54:58;99614.66;;;-1.03;65.86
46111;BME280;31849;55.992;37.252;2023-01-15T08:00:02;99622.44;;;-1.00;65.57
46111;BME280;31849;55.992;37.252;2023-01-15T08:05:08;99622.47;;;-0.81;65.21
46111;BME280;31849;55.992;37.252;2023-01-15T08:10:13;99632.41;;;-0.87;65.38
46111;BME280;31849;55.992;37.252;2023-01-15T08:15:17;99635.84;;;-0.67;64.82
46111;BME280;31849;55.992;37.252;2023-01-15T08:20:24;99635.06;;;-0.66;64.47
46111;BME280;31849;55.992;37.252;2023-01-15T08:25:28;99633.34;;;-0.85;65.08
46111;BME280;31849;55.992;37.252;2023-01-15T08:30:31;99626.19;;;-0.92;65.33
46111;BME280;31849;55.992;37.252;2023-01-15T08:35:36;99628.13;;;-1.06;65.26
46111;BME280;31849;55.992;37.252;2023-01-15T08:40:39;99622.28;;;-0.85;64.60
46111;BME280;31849;55.992;37.252;2023-01-15T08:45:58;99629.00;;;-0.87;64.83
46111;BME280;31849;55.992;37.252;2023-01-15T08:51:05;99619.22;;;-0.96;65.09
46111;BME280;31849;55.992;37.252;2023-01-15T08:56:11;99614.28;;;-0.74;64.21
46111;BME280;31849;55.992;37.252;2023-01-15T09:01:15;99609.84;;;-0.78;64.33
46111;BME280;31849;55.992;37.252;2023-01-15T09:06:20;99613.88;;;-0.83;64.58
46111;BME280;31849;55.992;37.252;2023-01-15T09:11:23;99592.34;;;-0.88;64.52
46111;BME280;31849;55.992;37.252;2023-01-15T09:16:27;99605.31;;;-0.83;64.58
46111;BME280;31849;55.992;37.252;2023-01-15T09:21:34;99607.03;;;-0.84;64.76
46111;BME280;31849;55.992;37.252;2023-01-15T09:26:38;99597.59;;;-0.85;64.25
46111;BME280;31849;55.992;37.252;2023-01-15T09:31:42;99587.97;;;-0.73;64.15
46111;BME280;31849;55.992;37.252;2023-01-15T09:36:46;99589.75;;;-0.90;64.52
46111;BME280;31849;55.992;37.252;2023-01-15T09:42:03;99593.03;;;-0.92;64.04
46111;BME280;31849;55.992;37.252;2023-01-15T09:47:14;99583.97;;;-0.85;64.05
46111;BME280;31849;55.992;37.252;2023-01-15T09:52:29;99587.81;;;-0.76;63.65
46111;BME280;31849;55.992;37.252;2023-01-15T09:57:40;99585.72;;;-0.84;63.95
46111;BME280;31849;55.992;37.252;2023-01-15T10:02:46;99595.25;;;-0.80;64.14
46111;BME280;31849;55.992;37.252;2023-01-15T10:07:58;99593.72;;;-0.96;63.60
46111;BME280;31849;55.992;37.252;2023-01-15T10:13:07;99577.03;;;-0.88;63.94
46111;BME280;31849;55.992;37.252;2023-01-15T10:18:16;99593.28;;;-0.68;63.40
46111;BME280;31849;55.992;37.252;2023-01-15T10:23:36;99572.19;;;-0.64;63.37
46111;BME280;31849;55.992;37.252;2023-01-15T10:28:58;99571.47;;;-0.79;63.28
46111;BME280;31849;55.992;37.252;2023-01-15T10:39:51;99553.34;;;-0.66;63.55
46111;BME280;31849;55.992;37.252;2023-01-15T10:45:05;99552.28;;;-0.71;63.20
46111;BME280;31849;55.992;37.252;2023-01-15T10:50:16;99533.78;;;-0.65;63.02
46111;BME280;31849;55.992;37.252;2023-01-15T10:55:26;99543.59;;;-0.75;63.09
46111;BME280;31849;55.992;37.252;2023-01-15T11:00:31;99533.91;;;-0.82;63.47
46111;BME280;31849;55.992;37.252;2023-01-15T11:05:34;99525.84;;;-0.72;63.10
46111;BME280;31849;55.992;37.252;2023-01-15T11:10:40;99531.78;;;-0.73;62.98
46111;BME280;31849;55.992;37.252;2023-01-15T11:15:44;99523.38;;;-0.70;63.05
46111;BME280;31849;55.992;37.252;2023-01-15T11:21:10;99527.28;;;-0.78;63.09
46111;BME280;31849;55.992;37.252;2023-01-15T11:26:22;99516.25;;;-0.77;63.09
46111;BME280;31849;55.992;37.252;2023-01-15T11:31:35;99515.38;;;-0.78;62.71
46111;BME280;31849;55.992;37.252;2023-01-15T11:36:39;99500.13;;;-0.76;63.23
46111;BME280;31849;55.992;37.252;2023-01-15T11:41:47;99495.16;;;-0.73;62.77
46111;BME280;31849;55.992;37.252;2023-01-15T11:47:10;99491.75;;;-0.74;62.57
46111;BME280;31849;55.992;37.252;2023-01-15T11:52:30;99498.25;;;-0.61;63.08
46111;BME280;31849;55.992;37.252;2023-01-15T11:57:36;99508.53;;;-0.59;62.61
46111;BME280;31849;55.992;37.252;2023-01-15T12:02:40;99514.88;;;-0.49;62.41
46111;BME280;31849;55.992;37.252;2023-01-15T12:07:47;99507.56;;;-0.61;61.87
46111;BME280;31849;55.992;37.252;2023-01-15T12:13:03;99505.22;;;-0.76;62.60
46111;BME280;31849;55.992;37.252;2023-01-15T12:18:32;99517.25;;;-0.54;61.99
46111;BME280;31849;55.992;37.252;2023-01-15T12:24:11;99507.03;;;-0.54;61.83
46111;BME280;31849;55.992;37.252;2023-01-15T12:29:21;99512.41;;;-0.67;62.24
46111;BME280;31849;55.992;37.252;2023-01-15T12:34:30;99504.03;;;-0.65;62.50
46111;BME280;31849;55.992;37.252;2023-01-15T12:39:43;99505.03;;;-0.61;62.11
46111;BME280;31849;55.992;37.252;2023-01-15T12:44:51;99514.63;;;-0.56;62.12
46111;BME280;31849;55.992;37.252;2023-01-15T12:50:23;99506.19;;;-0.33;61.22
46111;BME280;31849;55.992;37.252;2023-01-15T12:55:30;99491.34;;;-0.42;61.34
46111;BME280;31849;55.992;37.252;2023-01-15T13:00:42;99527.13;;;-0.42;61.00
46111;BME280;31849;55.992;37.252;2023-01-15T13:05:48;99526.94;;;-0.47;61.68
46111;BME280;31849;55.992;37.252;2023-01-15T13:10:53;99533.25;;;-0.58;61.44
46111;BME280;31849;55.992;37.252;2023-01-15T13:16:06;99521.25;;;-0.61;61.62
46111;BME280;31849;55.992;37.252;2023-01-15T13:21:13;99530.09;;;-0.52;61.65
46111;BME280;31849;55.992;37.252;2023-01-15T13:26:31;99539.09;;;-0.80;61.43
46111;BME280;31849;55.992;37.252;2023-01-15T13:32:01;99547.25;;;-0.89;61.88
46111;BME280;31849;55.992;37.252;2023-01-15T13:37:16;99545.75;;;-0.64;61.83
46111;BME280;31849;55.992;37.252;2023-01-15T13:42:22;99554.13;;;-0.67;61.49
46111;BME280;31849;55.992;37.252;2023-01-15T13:47:37;99549.53;;;-0.76;61.80
46111;BME280;31849;55.992;37.252;2023-01-15T13:52:44;99544.19;;;-0.80;61.94
46111;BME280;31849;55.992;37.252;2023-01-15T13:57:48;99541.31;;;-0.88;61.97
46111;BME280;31849;55.992;37.252;2023-01-15T14:02:54;99535.19;;;-0.92;61.95
46111;BME280;31849;55.992;37.252;2023-01-15T14:07:59;99550.13;;;-0.81;61.35
46111;BME280;31849;55.992;37.252;2023-01-15T14:13:17;99540.78;;;-0.81;61.28
46111;BME280;31849;55.992;37.252;2023-01-15T14:18:55;99540.72;;;-0.82;61.24
46111;BME280;31849;55.992;37.252;2023-01-15T14:24:18;99537.75;;;-0.92;61.46
46111;BME280;31849;55.992;37.252;2023-01-15T14:29:47;99520.88;;;-1.08;61.92
46111;BME280;31849;55.992;37.252;2023-01-15T14:34:57;99513.88;;;-0.92;61.04
46111;BME280;31849;55.992;37.252;2023-01-15T14:40:02;99520.22;;;-1.03;61.63
46111;BME280;31849;55.992;37.252;2023-01-15T14:45:17;99504.19;;;-1.19;62.14
46111;BME280;31849;55.992;37.252;2023-01-15T14:50:27;99512.63;;;-1.21;61.59
46111;BME280;31849;55.992;37.252;2023-01-15T14:55:32;99501.38;;;-1.06;61.77
46111;BME280;31849;55.992;37.252;2023-01-15T15:00:43;99495.56;;;-1.03;61.67
46111;BME280;31849;55.992;37.252;2023-01-15T15:05:50;99503.63;;;-0.94;61.35
46111;BME280;31849;55.992;37.252;2023-01-15T15:10:55;99493.53;;;-1.10;61.82
46111;BME280;31849;55.992;37.252;2023-01-15T15:16:04;99483.50;;;-1.25;61.79
46111;BME280;31849;55.992;37.252;2023-01-15T15:21:15;99481.72;;;-1.28;61.63
46111;BME280;31849;55.992;37.252;2023-01-15T15:26:23;99485.22;;;-1.26;61.58
46111;BME280;31849;55.992;37.252;2023-01-15T15:31:30;99473.19;;;-1.28;62.09
46111;BME280;31849;55.992;37.252;2023-01-15T15:36:39;99482.91;;;-1.19;61.57
46111;BME280;31849;55.992;37.252;2023-01-15T15:41:44;99462.81;;;-1.51;62.19
46111;BME280;31849;55.992;37.252;2023-01-15T15:47:17;99454.75;;;-1.60;61.79
46111;BME280;31849;55.992;37.252;2023-01-15T15:52:43;99448.25;;;-1.53;61.96
46111;BME280;31849;55.992;37.252;2023-01-15T15:57:49;99417.88;;;-1.67;62.49
46111;BME280;31849;55.992;37.252;2023-01-15T16:02:54;99419.84;;;-1.61;62.30
46111;BME280;31849;55.992;37.252;2023-01-15T16:08:15;99398.69;;;-1.78;62.36
46111;BME280;31849;55.992;37.252;2023-01-15T16:13:26;99382.59;;;-1.57;61.59
46111;BME280;31849;55.992;37.252;2023-01-15T16:18:33;99378.91;;;-1.64;61.81
46111;BME280;31849;55.992;37.252;2023-01-15T16:23:54;99380.25;;;-1.72;61.38
46111;BME280;31849;55.992;37.252;2023-01-15T16:29:00;99389.56;;;-1.73;61.98
46111;BME280;31849;55.992;37.252;2023-01-15T16:34:04;99401.94;;;-1.63;61.79
46111;BME280;31849;55.992;37.252;2023-01-15T16:39:19;99381.41;;;-1.46;61.31
46111;BME280;31849;55.992;37.252;2023-01-15T16:44:29;99393.09;;;-1.51;61.22
46111;BME280;31849;55.992;37.252;2023-01-15T16:49:34;99399.53;;;-1.60;61.48
46111;BME280;31849;55.992;37.252;2023-01-15T16:54:46;99391.28;;;-1.34;60.54
46111;BME280;31849;55.992;37.252;2023-01-15T17:00:27;99387.47;;;-1.25;60.63
46111;BME280;31849;55.992;37.252;2023-01-15T17:05:31;99396.19;;;-1.19;60.91
46111;BME280;31849;55.992;37.252;2023-01-15T17:10:37;99401.88;;;-1.25;60.54
46111;BME280;31849;55.992;37.252;2023-01-15T17:15:40;99406.78;;;-1.49;60.98
46111;BME280;31849;55.992;37.252;2023-01-15T17:20:44;99405.78;;;-1.53;61.01
46111;BME280;31849;55.992;37.252;2023-01-15T17:25:50;99406.03;;;-1.84;61.62
46111;BME280;31849;55.992;37.252;2023-01-15T17:30:57;99410.78;;;-1.54;61.11
46111;BME280;31849;55.992;37.252;2023-01-15T17:36:02;99422.13;;;-1.67;61.12
46111;BME280;31849;55.992;37.252;2023-01-15T17:41:08;99416.38;;;-1.63;61.18
46111;BME280;31849;55.992;37.252;2023-01-15T17:46:12;99418.03;;;-1.64;60.91
46111;BME280;31849;55.992;37.252;2023-01-15T17:51:15;99410.81;;;-1.72;61.31
46111;BME280;31849;55.992;37.252;2023-01-15T17:56:20;99405.72;;;-1.72;61.28
46111;BME280;31849;55.992;37.252;2023-01-15T18:01:43;99403.63;;;-1.81;61.70
46111;BME280;31849;55.992;37.252;2023-01-15T18:07:04;99394.16;;;-1.66;60.85
46111;BME280;31849;55.992;37.252;2023-01-15T18:12:09;99400.28;;;-1.80;61.21
46111;BME280;31849;55.992;37.252;2023-01-15T18:17:13;99388.63;;;-1.75;61.19
46111;BME280;31849;55.992;37.252;2023-01-15T18:22:17;99387.09;;;-1.71;60.98
46111;BME280;31849;55.992;37.252;2023-01-15T18:27:22;99398.78;;;-1.77;61.34
46111;BME280;31849;55.992;37.252;2023-01-15T18:32:31;99401.31;;;-1.77;61.01
46111;BME280;31849;55.992;37.252;2023-01-15T18:37:34;99391.28;;;-1.91;61.55
46111;BME280;31849;55.992;37.252;2023-01-15T18:42:39;99378.63;;;-1.90;61.73
46111;BME280;31849;55.992;37.252;2023-01-15T18:48:00;99366.66;;;-1.91;61.22
46111;BME280;31849;55.992;37.252;2023-01-15T18:53:04;99361.09;;;-2.02;61.72
46111;BME280;31849;55.992;37.252;2023-01-15T18:58:10;99354.44;;;-1.98;61.54
46111;BME280;31849;55.992;37.252;2023-01-15T19:03:14;99347.88;;;-1.93;61.52
46111;BME280;31849;55.992;37.252;2023-01-15T19:08:17;99343.84;;;-2.07;61.45
46111;BME280;31849;55.992;37.252;2023-01-15T19:13:22;99339.44;;;-2.48;62.02
46111;BME280;31849;55.992;37.252;2023-01-15T19:18:25;99318.03;;;-2.33;62.00
46111;BME280;31849;55.992;37.252;2023-01-15T19:23:52;99303.13;;;-2.25;61.63
46111;BME280;31849;55.992;37.252;2023-01-15T19:28:57;99302.44;;;-2.21;61.53
46111;BME280;31849;55.992;37.252;2023-01-15T19:34:00;99313.00;;;-2.14;61.50
46111;BME280;31849;55.992;37.252;2023-01-15T19:39:28;99306.72;;;-2.20;61.46
46111;BME280;31849;55.992;37.252;2023-01-15T19:44:33;99301.09;;;-2.33;61.66
46111;BME280;31849;55.992;37.252;2023-01-15T19:49:54;99295.41;;;-2.45;61.89
46111;BME280;31849;55.992;37.252;2023-01-15T19:55:16;99293.59;;;-2.48;61.94
46111;BME280;31849;55.992;37.252;2023-01-15T20:00:22;99294.13;;;-2.55;62.40
46111;BME280;31849;55.992;37.252;2023-01-15T20:05:28;99290.31;;;-2.63;61.82
46111;BME280;31849;55.992;37.252;2023-01-15T20:10:32;99288.28;;;-2.34;61.47
46111;BME280;31849;55.992;37.252;2023-01-15T20:15:41;99286.38;;;-2.38;61.59
46111;BME280;31849;55.992;37.252;2023-01-15T20:20:46;99293.59;;;-2.30;61.61
46111;BME280;31849;55.992;37.252;2023-01-15T20:25:50;99288.50;;;-2.48;61.56
46111;BME280;31849;55.992;37.252;2023-01-15T20:30:56;99285.47;;;-2.40;61.27
46111;BME280;31849;55.992;37.252;2023-01-15T20:36:01;99288.63;;;-2.26;61.03
46111;BME280;31849;55.992;37.252;2023-01-15T20:41:05;99289.16;;;-2.34;61.44
46111;BME280;31849;55.992;37.252;2023-01-15T20:46:28;99293.09;;;-2.40;61.93
46111;BME280;31849;55.992;37.252;2023-01-15T20:51:31;99284.56;;;-2.41;61.56
46111;BME280;31849;55.992;37.252;2023-01-15T20:56:35;99296.00;;;-2.33;61.56
46111;BME280;31849;55.992;37.252;2023-01-15T21:01:40;99284.19;;;-2.31;61.55
46111;BME280;31849;55.992;37.252;2023-01-15T21:06:44;99289.50;;;-2.26;61.21
46111;BME280;31849;55.992;37.252;2023-01-15T21:11:47;99281.50;;;-2.34;61.34
46111;BME280;31849;55.992;37.252;2023-01-15T21:16:52;99287.97;;;-2.22;61.21
46111;BME280;31849;55.992;37.252;2023-01-15T21:21:56;99281.84;;;-2.26;61.32
46111;BME280;31849;55.992;37.252;2023-01-15T21:27:00;99279.09;;;-2.31;61.71
46111;BME280;31849;55.992;37.252;2023-01-15T21:32:05;99269.50;;;-2.18;61.94
46111;BME280;31849;55.992;37.252;2023-01-15T21:37:08;99270.16;;;-2.22;61.50
46111;BME280;31849;55.992;37.252;2023-01-15T21:42:15;99271.22;;;-2.17;61.10
46111;BME280;31849;55.992;37.252;2023-01-15T21:47:38;99269.94;;;-2.45;61.83
46111;BME280;31849;55.992;37.252;2023-01-15T21:52:42;99265.25;;;-2.55;62.32
46111;BME280;31849;55.992;37.252;2023-01-15T21:57:46;99277.28;;;-2.33;61.65
46111;BME280;31849;55.992;37.252;2023-01-15T22:02:51;99279.97;;;-2.48;61.95
46111;BME280;31849;55.992;37.252;2023-01-15T22:07:56;99271.84;;;-2.41;62.34
46111;BME280;31849;55.992;37.252;2023-01-15T22:13:00;99280.59;;;-2.54;62.04
46111;BME280;31849;55.992;37.252;2023-01-15T22:18:05;99271.78;;;-2.60;61.71
46111;BME280;31849;55.992;37.252;2023-01-15T22:23:08;99271.13;;;-2.56;62.04
46111;BME280;31849;55.992;37.252;2023-01-15T22:28:12;99272.34;;;-2.48;61.88
46111;BME280;31849;55.992;37.252;2023-01-15T22:33:17;99267.00;;;-2.35;61.41
46111;BME280;31849;55.992;37.252;2023-01-15T22:38:20;99255.63;;;-2.43;61.45
46111;BME280;31849;55.992;37.252;2023-01-15T22:43:23;99250.25;;;-2.49;61.68
46111;BME280;31849;55.992;37.252;2023-01-15T22:48:28;99248.41;;;-2.34;61.65
46111;BME280;31849;55.992;37.252;2023-01-15T22:53:32;99234.81;;;-2.34;61.61
46111;BME280;31849;55.992;37.252;2023-01-15T22:58:36;99240.78;;;-2.52;61.58
46111;BME280;31849;55.992;37.252;2023-01-15T23:03:44;99231.56;;;-2.68;61.71
46111;BME280;31849;55.992;37.252;2023-01-15T23:08:48;99223.00;;;-2.70;62.13
46111;BME280;31849;55.992;37.252;2023-01-15T23:13:51;99225.47;;;-2.71;62.16
46111;BME280;31849;55.992;37.252;2023-01-15T23:18:56;99202.91;;;-2.63;61.59
46111;BME280;31849;55.992;37.252;2023-01-15T23:24:01;99197.25;;;-2.58;61.88
46111;BME280;31849;55.992;37.252;2023-01-15T23:29:05;99195.88;;;-2.69;61.98
46111;BME280;31849;55.992;37.252;2023-01-15T23:34:10;99202.22;;;-2.79;62.46
46111;BME280;31849;55.992;37.252;2023-01-15T23:39:13;99176.53;;;-2.84;62.49
46111;BME280;31849;55.992;37.252;2023-01-15T23:44:18;99161.44;;;-2.80;62.54
46111;BME280;31849;55.992;37.252;2023-01-15T23:49:41;99175.13;;;-2.59;62.29
46111;BME280;31849;55.992;37.252;2023-01-15T23:54:45;99185.28;;;-2.78;62.53
46111;BME280;31849;55.992;37.252;2023-01-15T23:59:48;99162.59;;;-2.92;63.16
